createdAt,value
2023-01-23T00:00:26.704Z,1.95
2023-01-23T00:01:26.714Z,1.95
2023-01-23T00:02:26.723Z,1.95
2023-01-23T00:03:26.656Z,1.92
2023-01-23T00:04:26.737Z,1.94
2023-01-23T00:05:26.639Z,1.92
2023-01-23T00:06:26.611Z,1.92
2023-01-23T00:07:26.597Z,1.95
2023-01-23T00:08:26.585Z,1.97
2023-01-23T00:09:26.577Z,1.94
2023-01-23T00:10:26.693Z,1.99
2023-01-23T00:11:26.550Z,1.95
2023-01-23T00:12:26.539Z,1.99
2023-01-23T00:13:26.523Z,1.97
2023-01-23T00:14:26.517Z,1.99
2023-01-23T00:15:26.514Z,1.99
2023-01-23T00:16:26.495Z,2.00
2023-01-23T00:17:26.471Z,1.97
2023-01-23T00:18:26.457Z,2.02
2023-01-23T00:19:26.449Z,2.04
2023-01-23T00:20:26.451Z,2.04
2023-01-23T00:21:26.423Z,2.10
2023-01-23T00:22:26.431Z,2.06
2023-01-23T00:23:26.392Z,2.08
2023-01-23T00:24:26.383Z,2.07
2023-01-23T00:25:26.387Z,2.06
2023-01-23T00:26:26.472Z,2.08
2023-01-23T00:27:26.352Z,2.08
2023-01-23T00:28:26.346Z,2.10
2023-01-23T00:29:26.321Z,2.02
2023-01-23T00:30:26.337Z,2.04
2023-01-23T00:31:26.516Z,2.02
2023-01-23T00:32:26.280Z,2.06
2023-01-23T00:33:26.271Z,2.04
2023-01-23T00:34:26.255Z,2.02
2023-01-23T00:35:26.253Z,2.02
2023-01-23T00:36:26.250Z,2.07
2023-01-23T00:37:26.219Z,2.04
2023-01-23T00:38:26.207Z,2.02
2023-01-23T00:39:26.197Z,2.07
2023-01-23T00:40:26.180Z,2.13
2023-01-23T00:41:26.181Z,2.07
2023-01-23T00:42:26.276Z,2.08
2023-01-23T00:43:26.159Z,2.04
2023-01-23T00:44:26.128Z,2.04
2023-01-23T00:45:26.118Z,2.04
2023-01-23T00:46:26.214Z,2.04
2023-01-23T00:47:26.095Z,2.02
2023-01-23T00:48:26.096Z,2.04
2023-01-23T00:49:26.069Z,2.02
2023-01-23T00:50:26.053Z,1.99
2023-01-23T00:51:26.147Z,2.00
2023-01-23T00:52:26.032Z,2.04
2023-01-23T00:53:26.020Z,2.06
2023-01-23T00:54:26.001Z,2.02
2023-01-23T00:55:25.994Z,2.00
2023-01-23T00:56:25.992Z,2.02
2023-01-23T00:57:25.970Z,2.06
2023-01-23T00:58:26.062Z,2.08
2023-01-23T00:59:25.948Z,2.00
2023-01-23T01:00:25.931Z,2.00
2023-01-23T01:01:26.046Z,2.04
2023-01-23T01:02:25.938Z,2.04
2023-01-23T01:03:25.889Z,2.08
2023-01-23T01:04:25.882Z,2.06
2023-01-23T01:05:25.906Z,2.04
2023-01-23T01:06:25.868Z,2.10
2023-01-23T01:07:25.843Z,2.08
2023-01-23T01:08:25.840Z,2.10
2023-01-23T01:09:25.817Z,2.08
2023-01-23T01:10:25.816Z,2.02
2023-01-23T01:11:25.805Z,2.02
2023-01-23T01:12:25.782Z,2.00
2023-01-23T01:13:25.766Z,2.00
2023-01-23T01:14:25.874Z,2.02
2023-01-23T01:15:25.742Z,1.95
2023-01-23T01:16:25.824Z,1.92
2023-01-23T01:17:25.720Z,2.00
2023-01-23T01:18:25.709Z,1.92
2023-01-23T01:19:25.688Z,1.89
2023-01-23T01:20:25.676Z,1.89
2023-01-23T01:21:25.679Z,1.88
2023-01-23T01:22:25.652Z,1.87
2023-01-23T01:23:25.650Z,1.84
2023-01-23T01:24:25.625Z,1.73
2023-01-23T01:25:25.615Z,1.73
2023-01-23T01:26:25.618Z,1.74
2023-01-23T01:27:25.590Z,1.70
2023-01-23T01:28:25.572Z,1.67
2023-01-23T01:29:25.562Z,1.62
2023-01-23T01:30:25.677Z,1.68
2023-01-23T01:31:25.652Z,1.67
2023-01-23T01:32:25.530Z,1.60
2023-01-23T01:33:25.517Z,1.62
2023-01-23T01:34:25.501Z,1.60
2023-01-23T01:35:25.493Z,1.59
2023-01-23T01:36:25.492Z,1.62
2023-01-23T01:37:25.481Z,1.62
2023-01-23T01:38:25.450Z,1.59
2023-01-23T01:39:25.436Z,1.62
2023-01-23T01:40:25.432Z,1.60
2023-01-23T01:41:25.442Z,1.56
2023-01-23T01:42:25.400Z,1.55
2023-01-23T01:43:25.389Z,1.52
2023-01-23T01:44:25.373Z,1.49
2023-01-23T01:45:25.367Z,1.52
2023-01-23T01:46:25.594Z,1.48
2023-01-23T01:47:25.339Z,1.50
2023-01-23T01:48:25.334Z,1.44
2023-01-23T01:49:25.321Z,1.41
2023-01-23T01:50:25.301Z,1.37
2023-01-23T01:51:25.344Z,1.32
2023-01-23T01:52:25.275Z,1.37
2023-01-23T01:53:25.259Z,1.28
2023-01-23T01:54:25.256Z,1.26
2023-01-23T01:55:25.243Z,1.26
2023-01-23T01:56:25.238Z,1.24
2023-01-23T01:57:25.212Z,1.24
2023-01-23T01:58:25.197Z,1.24
2023-01-23T01:59:25.187Z,1.24
2023-01-23T02:00:25.205Z,1.22
2023-01-23T02:01:25.194Z,1.23
2023-01-23T02:02:25.262Z,1.20
2023-01-23T02:03:25.144Z,1.17
2023-01-23T02:04:25.125Z,1.19
2023-01-23T02:05:25.118Z,1.14
2023-01-23T02:06:25.100Z,1.14
2023-01-23T02:07:25.120Z,1.13
2023-01-23T02:08:25.069Z,1.05
2023-01-23T02:09:25.073Z,1.06
2023-01-23T02:10:25.055Z,1.05
2023-01-23T02:11:25.035Z,1.02
2023-01-23T02:12:25.042Z,1.04
2023-01-23T02:13:25.016Z,1.02
2023-01-23T02:14:24.996Z,1.02
2023-01-23T02:15:25.023Z,0.99
2023-01-23T02:16:25.041Z,0.99
2023-01-23T02:17:24.988Z,0.99
2023-01-23T02:18:25.057Z,1.04
2023-01-23T02:19:24.940Z,1.02
2023-01-23T02:20:24.926Z,1.05
2023-01-23T02:21:25.513Z,1.05
2023-01-23T02:22:24.912Z,1.02
2023-01-23T02:23:24.884Z,1.04
2023-01-23T02:24:24.872Z,1.06
2023-01-23T02:25:24.860Z,1.06
2023-01-23T02:26:24.844Z,1.06
2023-01-23T02:27:24.848Z,1.04
2023-01-23T02:28:24.826Z,1.08
2023-01-23T02:29:24.816Z,1.05
2023-01-23T02:30:24.815Z,1.10
2023-01-23T02:31:24.909Z,1.08
2023-01-23T02:32:24.787Z,1.10
2023-01-23T02:33:24.757Z,1.16
2023-01-23T02:34:24.855Z,1.16
2023-01-23T02:35:24.738Z,1.13
2023-01-23T02:36:24.720Z,1.12
2023-01-23T02:37:24.723Z,1.13
2023-01-23T02:38:24.697Z,1.16
2023-01-23T02:39:24.685Z,1.20
2023-01-23T02:40:24.666Z,1.20
2023-01-23T02:41:24.667Z,1.22
2023-01-23T02:42:24.682Z,1.23
2023-01-23T02:43:24.634Z,1.24
2023-01-23T02:44:24.624Z,1.24
2023-01-23T02:45:24.640Z,1.26
2023-01-23T02:46:24.593Z,1.26
2023-01-23T02:47:24.595Z,1.32
2023-01-23T02:48:24.573Z,1.28
2023-01-23T02:49:24.557Z,1.24
2023-01-23T02:50:24.662Z,1.28
2023-01-23T02:51:24.595Z,1.30
2023-01-23T02:52:24.531Z,1.32
2023-01-23T02:53:24.505Z,1.32
2023-01-23T02:54:24.500Z,1.31
2023-01-23T02:55:24.487Z,1.30
2023-01-23T02:56:24.482Z,1.30
2023-01-23T02:57:24.479Z,1.34
2023-01-23T02:58:24.457Z,1.34
2023-01-23T02:59:24.445Z,1.41
2023-01-23T03:00:24.416Z,1.42
2023-01-23T03:01:24.408Z,1.44
2023-01-23T03:02:24.507Z,1.48
2023-01-23T03:03:24.383Z,1.50
2023-01-23T03:04:24.373Z,1.50
2023-01-23T03:05:24.355Z,1.49
2023-01-23T03:06:24.464Z,1.53
2023-01-23T03:07:24.359Z,1.55
2023-01-23T03:08:24.321Z,1.50
2023-01-23T03:09:24.306Z,1.53
2023-01-23T03:10:24.304Z,1.55
2023-01-23T03:11:24.289Z,1.55
2023-01-23T03:12:24.282Z,1.56
2023-01-23T03:13:24.253Z,1.53
2023-01-23T03:14:24.250Z,1.59
2023-01-23T03:15:24.227Z,1.60
2023-01-23T03:16:24.259Z,1.62
2023-01-23T03:17:24.223Z,1.59
2023-01-23T03:18:24.189Z,1.59
2023-01-23T03:19:24.186Z,1.59
2023-01-23T03:20:24.176Z,1.58
2023-01-23T03:21:24.160Z,1.60
2023-01-23T03:22:24.276Z,1.62
2023-01-23T03:23:24.143Z,1.63
2023-01-23T03:24:24.115Z,1.59
2023-01-23T03:25:24.108Z,1.63
2023-01-23T03:26:24.091Z,1.63
2023-01-23T03:27:24.103Z,1.67
2023-01-23T03:28:24.072Z,1.68
2023-01-23T03:29:24.078Z,1.70
2023-01-23T03:30:24.039Z,1.71
2023-01-23T03:31:24.117Z,1.74
2023-01-23T03:32:24.039Z,1.77
2023-01-23T03:33:24.004Z,1.77
2023-01-23T03:34:23.994Z,1.80
2023-01-23T03:35:23.979Z,1.80
2023-01-23T03:36:23.983Z,1.78
2023-01-23T03:37:23.985Z,1.81
2023-01-23T03:38:24.055Z,1.81
2023-01-23T03:39:23.931Z,1.81
2023-01-23T03:40:23.917Z,1.87
2023-01-23T03:41:23.905Z,1.84
2023-01-23T03:42:23.919Z,1.80
2023-01-23T03:43:23.876Z,1.87
2023-01-23T03:44:23.877Z,1.85
2023-01-23T03:45:23.849Z,1.87
2023-01-23T03:46:23.847Z,1.89
2023-01-23T03:47:23.828Z,1.87
2023-01-23T03:48:23.830Z,1.89
2023-01-23T03:49:23.800Z,1.88
2023-01-23T03:50:23.808Z,1.91
2023-01-23T03:51:23.882Z,1.88
2023-01-23T03:52:23.765Z,1.92
2023-01-23T03:53:23.776Z,1.91
2023-01-23T03:54:23.850Z,1.92
2023-01-23T03:55:23.741Z,1.91
2023-01-23T03:56:23.714Z,1.91
2023-01-23T03:57:23.727Z,1.92
2023-01-23T03:58:23.711Z,1.97
2023-01-23T03:59:23.684Z,1.97
2023-01-23T04:00:23.669Z,1.94
2023-01-23T04:01:23.716Z,1.91
2023-01-23T04:02:23.675Z,1.97
2023-01-23T04:03:23.636Z,1.92
2023-01-23T04:04:23.613Z,1.97
2023-01-23T04:05:23.616Z,2.02
2023-01-23T04:06:23.585Z,1.97
2023-01-23T04:07:23.576Z,2.00
2023-01-23T04:08:23.579Z,2.00
2023-01-23T04:09:23.553Z,2.00
2023-01-23T04:10:23.656Z,1.97
2023-01-23T04:11:23.530Z,1.95
2023-01-23T04:12:23.523Z,1.95
2023-01-23T04:13:23.515Z,1.95
2023-01-23T04:14:23.492Z,1.97
2023-01-23T04:15:23.474Z,2.00
2023-01-23T04:16:23.546Z,2.00
2023-01-23T04:17:23.448Z,1.99
2023-01-23T04:18:23.448Z,1.99
2023-01-23T04:19:23.425Z,1.99
2023-01-23T04:20:23.414Z,2.02
2023-01-23T04:21:23.397Z,2.00
2023-01-23T04:22:23.387Z,2.02
2023-01-23T04:23:23.391Z,2.00
2023-01-23T04:24:23.361Z,2.00
2023-01-23T04:25:23.352Z,1.97
2023-01-23T04:26:23.459Z,1.95
2023-01-23T04:27:23.324Z,1.99
2023-01-23T04:28:23.327Z,1.99
2023-01-23T04:29:23.313Z,2.00
2023-01-23T04:30:23.286Z,1.99
2023-01-23T04:31:23.417Z,2.02
2023-01-23T04:32:23.262Z,2.02
2023-01-23T04:33:23.263Z,2.00
2023-01-23T04:34:23.236Z,1.99
2023-01-23T04:35:23.227Z,2.02
2023-01-23T04:36:23.211Z,2.02
2023-01-23T04:37:23.201Z,2.04
2023-01-23T04:38:23.202Z,2.06
2023-01-23T04:39:23.173Z,2.02
2023-01-23T04:40:23.160Z,2.04
2023-01-23T04:41:23.162Z,2.04
2023-01-23T04:42:23.253Z,2.02
2023-01-23T04:43:23.147Z,2.00
2023-01-23T04:44:23.115Z,2.00
2023-01-23T04:45:23.099Z,2.04
2023-01-23T04:46:23.233Z,2.07
2023-01-23T04:47:23.077Z,2.02
2023-01-23T04:48:23.076Z,2.06
2023-01-23T04:49:23.057Z,2.04
2023-01-23T04:50:23.032Z,2.02
2023-01-23T04:51:23.112Z,2.04
2023-01-23T04:52:23.019Z,2.02
2023-01-23T04:53:23.014Z,2.02
2023-01-23T04:54:22.981Z,2.02
2023-01-23T04:55:22.977Z,2.04
2023-01-23T04:56:22.965Z,2.00
2023-01-23T04:57:22.946Z,2.02
2023-01-23T04:58:23.064Z,2.00
2023-01-23T04:59:22.922Z,2.04
2023-01-23T05:00:22.903Z,1.95
2023-01-23T05:01:22.900Z,1.94
2023-01-23T05:02:22.980Z,2.02
2023-01-23T05:03:22.889Z,1.99
2023-01-23T05:04:22.862Z,2.04
2023-01-23T05:05:22.861Z,2.04
2023-01-23T05:06:22.846Z,2.00
2023-01-23T05:07:22.819Z,2.00
2023-01-23T05:08:22.819Z,2.04
2023-01-23T05:09:22.792Z,2.02
2023-01-23T05:10:23.153Z,1.99
2023-01-23T05:11:22.767Z,2.04
2023-01-23T05:12:22.753Z,1.99
2023-01-23T05:13:22.758Z,1.99
2023-01-23T05:14:22.849Z,1.99
2023-01-23T05:15:22.716Z,1.99
2023-01-23T05:16:22.713Z,1.97
2023-01-23T05:17:22.697Z,1.99
2023-01-23T05:18:22.695Z,1.97
2023-01-23T05:19:22.664Z,1.95
2023-01-23T05:20:22.660Z,1.97
2023-01-23T05:21:22.647Z,1.88
2023-01-23T05:22:22.629Z,1.94
2023-01-23T05:23:22.636Z,1.94
2023-01-23T05:24:22.649Z,1.91
2023-01-23T05:25:22.597Z,1.92
2023-01-23T05:26:22.583Z,1.95
2023-01-23T05:27:22.572Z,1.97
2023-01-23T05:28:22.567Z,2.00
2023-01-23T05:29:22.583Z,2.02
2023-01-23T05:30:22.772Z,2.04
2023-01-23T05:31:22.692Z,2.06
2023-01-23T05:32:22.508Z,2.02
2023-01-23T05:33:22.490Z,2.00
2023-01-23T05:34:22.497Z,2.00
2023-01-23T05:35:22.463Z,2.04
2023-01-23T05:36:22.460Z,2.00
2023-01-23T05:37:22.445Z,2.04
2023-01-23T05:38:22.429Z,1.97
2023-01-23T05:39:22.430Z,1.94
2023-01-23T05:40:22.682Z,1.94
2023-01-23T05:41:24.768Z,1.97
2023-01-23T05:42:22.380Z,1.97
2023-01-23T05:43:22.372Z,1.94
2023-01-23T05:44:22.367Z,2.00
2023-01-23T05:45:22.350Z,1.99
2023-01-23T05:46:22.463Z,2.00
2023-01-23T05:47:22.313Z,2.04
2023-01-23T05:48:22.306Z,2.06
2023-01-23T05:49:22.544Z,1.97
2023-01-23T05:50:22.508Z,1.97
2023-01-23T05:51:23.040Z,2.02
2023-01-23T05:52:22.254Z,2.06
2023-01-23T05:53:22.246Z,2.00
2023-01-23T05:54:22.248Z,2.04
2023-01-23T05:55:22.218Z,2.00
2023-01-23T05:56:22.199Z,2.02
2023-01-23T05:57:22.242Z,1.99
2023-01-23T05:58:22.175Z,2.02
2023-01-23T05:59:22.178Z,2.02
2023-01-23T06:00:22.447Z,2.02
2023-01-23T06:01:22.136Z,2.04
2023-01-23T06:02:22.285Z,2.00
2023-01-23T06:03:22.172Z,2.02
2023-01-23T06:04:22.142Z,2.06
2023-01-23T06:05:22.088Z,2.08
2023-01-23T06:06:22.077Z,2.08
2023-01-23T06:07:22.082Z,2.06
2023-01-23T06:08:22.049Z,2.08
2023-01-23T06:09:22.054Z,2.13
2023-01-23T06:10:22.286Z,2.14
2023-01-23T06:11:22.024Z,2.13
2023-01-23T06:12:22.000Z,2.11
2023-01-23T06:13:22.014Z,2.11
2023-01-23T06:14:21.997Z,2.13
2023-01-23T06:15:21.965Z,2.15
2023-01-23T06:16:22.063Z,2.17
2023-01-23T06:17:21.933Z,2.14
2023-01-23T06:18:22.043Z,2.17
2023-01-23T06:19:21.923Z,2.15
2023-01-23T06:20:22.432Z,2.17
2023-01-23T06:21:21.889Z,2.20
2023-01-23T06:22:21.902Z,2.18
2023-01-23T06:23:21.873Z,2.22
2023-01-23T06:24:21.843Z,2.20
2023-01-23T06:25:21.852Z,2.18
2023-01-23T06:26:21.828Z,2.18
2023-01-23T06:27:21.809Z,2.18
2023-01-23T06:28:21.802Z,2.17
2023-01-23T06:29:21.789Z,2.18
2023-01-23T06:30:22.178Z,2.20
2023-01-23T06:31:21.872Z,2.18
2023-01-23T06:32:21.746Z,2.17
2023-01-23T06:33:21.743Z,2.18
2023-01-23T06:34:21.832Z,2.20
2023-01-23T06:35:22.089Z,2.20
2023-01-23T06:36:21.696Z,2.24
2023-01-23T06:37:21.683Z,2.20
2023-01-23T06:38:21.668Z,2.15
2023-01-23T06:39:21.664Z,2.18
2023-01-23T06:40:21.959Z,2.18
2023-01-23T06:41:21.633Z,2.17
2023-01-23T06:42:21.629Z,2.15
2023-01-23T06:43:21.607Z,2.15
2023-01-23T06:44:21.598Z,2.14
2023-01-23T06:45:21.949Z,2.13
2023-01-23T06:46:21.605Z,2.15
2023-01-23T06:47:21.562Z,2.13
2023-01-23T06:48:21.550Z,2.13
2023-01-23T06:49:21.534Z,2.08
2023-01-23T06:50:22.100Z,2.10
2023-01-23T06:51:21.551Z,2.06
2023-01-23T06:52:21.489Z,2.00
2023-01-23T06:53:21.479Z,1.99
2023-01-23T06:54:21.479Z,1.97
2023-01-23T06:55:21.471Z,1.95
2023-01-23T06:56:21.445Z,1.92
2023-01-23T06:57:21.435Z,1.94
2023-01-23T06:58:21.424Z,1.92
2023-01-23T06:59:21.417Z,1.94
2023-01-23T07:00:21.682Z,1.91
2023-01-23T07:01:21.532Z,1.89
2023-01-23T07:02:21.380Z,1.91
2023-01-23T07:03:21.356Z,1.87
2023-01-23T07:04:21.339Z,1.88
2023-01-23T07:05:21.341Z,1.84
2023-01-23T07:06:21.432Z,1.87
2023-01-23T07:07:21.309Z,1.89
2023-01-23T07:08:21.289Z,1.88
2023-01-23T07:09:21.281Z,1.85
2023-01-23T07:10:21.677Z,1.87
2023-01-23T07:11:21.250Z,1.89
2023-01-23T07:12:21.238Z,1.92
2023-01-23T07:13:21.223Z,1.92
2023-01-23T07:14:21.249Z,1.95
2023-01-23T07:15:21.215Z,1.97
2023-01-23T07:16:21.231Z,1.97
2023-01-23T07:17:21.178Z,2.02
2023-01-23T07:18:21.169Z,2.00
2023-01-23T07:19:21.151Z,2.04
2023-01-23T07:20:21.481Z,2.08
2023-01-23T07:21:21.139Z,2.07
2023-01-23T07:22:21.136Z,2.08
2023-01-23T07:23:21.106Z,2.08
2023-01-23T07:24:21.095Z,2.14
2023-01-23T07:25:21.095Z,2.11
2023-01-23T07:26:21.071Z,2.14
2023-01-23T07:27:21.049Z,2.20
2023-01-23T07:28:21.054Z,2.15
2023-01-23T07:29:21.029Z,2.15
2023-01-23T07:30:21.336Z,2.17
2023-01-23T07:31:21.109Z,2.18
2023-01-23T07:32:20.989Z,2.17
2023-01-23T07:33:20.978Z,2.24
2023-01-23T07:34:20.972Z,2.29
2023-01-23T07:35:20.948Z,2.35
2023-01-23T07:36:20.951Z,2.36
2023-01-23T07:37:20.936Z,2.38
2023-01-23T07:38:21.041Z,2.44
2023-01-23T07:39:20.907Z,2.46
2023-01-23T07:40:21.268Z,2.49
2023-01-23T07:41:20.905Z,2.44
2023-01-23T07:42:20.865Z,2.43
2023-01-23T07:43:20.854Z,2.46
2023-01-23T07:44:20.837Z,2.47
2023-01-23T07:45:20.822Z,2.50
2023-01-23T07:46:20.880Z,2.50
2023-01-23T07:47:20.795Z,2.50
2023-01-23T07:48:20.790Z,2.54
2023-01-23T07:49:20.772Z,2.56
2023-01-23T07:50:21.048Z,2.54
2023-01-23T07:51:20.838Z,2.57
2023-01-23T07:52:20.746Z,2.56
2023-01-23T07:53:20.723Z,2.57
2023-01-23T07:54:20.728Z,2.62
2023-01-23T07:55:20.702Z,2.64
2023-01-23T07:56:20.706Z,2.67
2023-01-23T07:57:20.676Z,2.72
2023-01-23T07:58:20.668Z,2.65
2023-01-23T07:59:20.641Z,2.60
2023-01-23T08:00:23.407Z,2.51
2023-01-23T08:01:20.702Z,2.51
2023-01-23T08:02:20.608Z,2.53
2023-01-23T08:03:20.597Z,2.56
2023-01-23T08:04:20.591Z,2.64
2023-01-23T08:05:20.579Z,2.68
2023-01-23T08:06:20.576Z,2.64
2023-01-23T08:07:20.551Z,2.71
2023-01-23T08:08:20.533Z,2.75
2023-01-23T08:09:20.517Z,2.75
2023-01-23T08:10:21.016Z,2.82
2023-01-23T08:11:20.517Z,2.79
2023-01-23T08:12:20.479Z,2.82
2023-01-23T08:13:20.466Z,2.80
2023-01-23T08:14:20.468Z,2.90
2023-01-23T08:15:20.438Z,2.90
2023-01-23T08:16:20.564Z,2.92
2023-01-23T08:17:20.420Z,2.92
2023-01-23T08:18:20.402Z,2.97
2023-01-23T08:19:20.391Z,3.00
2023-01-23T08:20:20.788Z,3.03
2023-01-23T08:21:20.385Z,2.97
2023-01-23T08:22:20.354Z,2.93
2023-01-23T08:23:20.351Z,2.93
2023-01-23T08:24:20.332Z,2.87
2023-01-23T08:25:20.312Z,2.93
2023-01-23T08:26:20.440Z,3.01
2023-01-23T08:27:20.292Z,3.05
2023-01-23T08:28:20.279Z,3.08
2023-01-23T08:29:20.265Z,3.08
2023-01-23T08:30:20.590Z,3.11
2023-01-23T08:31:20.356Z,3.13
2023-01-23T08:32:20.238Z,3.16
2023-01-23T08:33:20.211Z,3.16
2023-01-23T08:34:20.202Z,3.18
2023-01-23T08:35:20.191Z,3.19
2023-01-23T08:36:20.204Z,3.21
2023-01-23T08:37:20.165Z,3.23
2023-01-23T08:38:20.150Z,3.31
2023-01-23T08:39:20.170Z,3.28
2023-01-23T08:40:20.395Z,3.28
2023-01-23T08:41:20.115Z,3.29
2023-01-23T08:42:20.241Z,3.32
2023-01-23T08:43:20.088Z,3.32
2023-01-23T08:44:20.083Z,3.34
2023-01-23T08:45:20.072Z,3.28
2023-01-23T08:46:20.054Z,3.31
2023-01-23T08:47:20.052Z,3.32
2023-01-23T08:48:20.030Z,3.36
2023-01-23T08:49:20.020Z,3.32
2023-01-23T08:50:20.382Z,3.42
2023-01-23T08:51:20.066Z,3.42
2023-01-23T08:52:19.985Z,3.42
2023-01-23T08:53:19.959Z,3.45
2023-01-23T08:54:19.944Z,3.51
2023-01-23T08:55:19.932Z,3.55
2023-01-23T08:56:19.919Z,3.51
2023-01-23T08:57:19.917Z,3.53
2023-01-23T08:58:20.092Z,3.40
2023-01-23T08:59:19.885Z,3.31
2023-01-23T09:00:20.290Z,3.26
2023-01-23T09:01:20.014Z,3.28
2023-01-23T09:02:19.905Z,3.40
2023-01-23T09:03:19.829Z,3.37
2023-01-23T09:04:19.816Z,3.34
2023-01-23T09:05:19.839Z,3.48
2023-01-23T09:06:19.795Z,3.50
2023-01-23T09:07:19.799Z,3.63
2023-01-23T09:08:19.770Z,3.74
2023-01-23T09:09:19.758Z,3.80
2023-01-23T09:10:20.077Z,3.87
2023-01-23T09:11:19.731Z,3.94
2023-01-23T09:12:19.742Z,3.99
2023-01-23T09:13:19.706Z,4.05
2023-01-23T09:14:19.808Z,4.05
2023-01-23T09:15:19.685Z,4.04
2023-01-23T09:16:19.705Z,4.12
2023-01-23T09:17:19.667Z,4.05
2023-01-23T09:18:19.639Z,4.05
2023-01-23T09:19:19.648Z,4.13
2023-01-23T09:20:19.957Z,4.17
2023-01-23T09:21:19.603Z,4.26
2023-01-23T09:22:19.606Z,4.31
2023-01-23T09:23:19.575Z,4.31
2023-01-23T09:24:19.576Z,4.31
2023-01-23T09:25:19.573Z,4.24
2023-01-23T09:26:20.006Z,4.28
2023-01-23T09:27:19.548Z,4.32
2023-01-23T09:28:19.508Z,4.32
2023-01-23T09:29:19.498Z,4.32
2023-01-23T09:30:19.966Z,4.37
2023-01-23T09:31:19.542Z,4.50
2023-01-23T09:32:19.494Z,4.49
2023-01-23T09:33:19.451Z,4.45
2023-01-23T09:34:19.442Z,4.44
2023-01-23T09:35:19.435Z,4.42
2023-01-23T09:36:21.824Z,4.40
2023-01-23T09:37:19.430Z,4.41
2023-01-23T09:38:19.383Z,4.49
2023-01-23T09:39:19.372Z,4.52
2023-01-23T09:40:19.636Z,4.53
2023-01-23T09:41:19.374Z,4.49
2023-01-23T09:42:19.359Z,4.38
2023-01-23T09:43:19.323Z,4.41
2023-01-23T09:44:19.309Z,4.41
2023-01-23T09:45:19.298Z,4.50
2023-01-23T09:46:19.485Z,4.58
2023-01-23T09:47:19.308Z,4.68
2023-01-23T09:48:19.266Z,4.70
2023-01-23T09:49:19.254Z,4.71
2023-01-23T09:50:19.576Z,4.71
2023-01-23T09:51:19.311Z,4.75
2023-01-23T09:52:19.209Z,4.78
2023-01-23T09:53:19.225Z,4.77
2023-01-23T09:54:19.188Z,4.66
2023-01-23T09:55:19.177Z,4.53
2023-01-23T09:56:19.166Z,4.49
2023-01-23T09:57:19.148Z,4.52
2023-01-23T09:58:19.153Z,4.52
2023-01-23T09:59:19.138Z,4.53
2023-01-23T10:00:19.450Z,4.44
2023-01-23T10:01:19.122Z,4.45
2023-01-23T10:02:19.276Z,4.52
2023-01-23T10:03:19.088Z,4.53
2023-01-23T10:04:19.066Z,4.55
2023-01-23T10:05:19.079Z,4.56
2023-01-23T10:06:19.037Z,4.58
2023-01-23T10:07:19.476Z,4.49
2023-01-23T10:08:19.023Z,4.53
2023-01-23T10:09:19.005Z,4.52
2023-01-23T10:10:18.995Z,4.50
2023-01-23T10:11:18.980Z,4.53
2023-01-23T10:12:18.973Z,4.55
2023-01-23T10:13:18.960Z,4.62
2023-01-23T10:14:18.938Z,4.60
2023-01-23T10:15:19.172Z,4.53
2023-01-23T10:16:18.948Z,4.59
2023-01-23T10:17:18.994Z,4.55
2023-01-23T10:18:19.012Z,4.59
2023-01-23T10:19:18.880Z,4.60
2023-01-23T10:20:19.201Z,4.63
2023-01-23T10:21:18.853Z,4.63
2023-01-23T10:22:22.983Z,4.70
2023-01-23T10:23:18.839Z,4.71
2023-01-23T10:24:18.810Z,4.73
2023-01-23T10:25:19.088Z,4.71
2023-01-23T10:26:18.786Z,4.73
2023-01-23T10:27:18.796Z,4.78
2023-01-23T10:28:18.775Z,4.70
2023-01-23T10:29:18.750Z,4.48
2023-01-23T10:30:19.220Z,4.58
2023-01-23T10:31:18.809Z,4.63
2023-01-23T10:32:18.707Z,4.60
2023-01-23T10:33:18.773Z,4.55
2023-01-23T10:34:18.799Z,4.53
2023-01-23T10:35:18.996Z,4.56
2023-01-23T10:36:23.802Z,4.60
2023-01-23T10:37:19.645Z,4.63
2023-01-23T10:38:18.661Z,4.70
2023-01-23T10:39:18.627Z,4.87
2023-01-23T10:40:18.867Z,4.93
2023-01-23T10:41:18.597Z,4.90
2023-01-23T10:42:18.584Z,4.82
2023-01-23T10:43:18.586Z,4.86
2023-01-23T10:44:18.555Z,4.92
2023-01-23T10:45:18.963Z,4.93
2023-01-23T10:46:18.742Z,4.94
2023-01-23T10:47:18.518Z,4.92
2023-01-23T10:48:18.515Z,4.87
2023-01-23T10:49:18.493Z,4.97
2023-01-23T10:50:18.497Z,5.04
2023-01-23T10:51:18.546Z,5.07
2023-01-23T10:52:20.123Z,5.10
2023-01-23T10:53:18.458Z,4.97
2023-01-23T10:54:30.727Z,5.00
2023-01-23T10:55:18.771Z,5.00
2023-01-23T10:56:18.401Z,5.04
2023-01-23T10:57:18.405Z,4.94
2023-01-23T10:58:18.388Z,4.96
2023-01-23T10:59:18.364Z,4.97
2023-01-23T11:00:18.347Z,4.94
2023-01-23T11:01:18.717Z,4.94
2023-01-23T11:02:18.421Z,5.02
2023-01-23T11:03:18.384Z,4.99
2023-01-23T11:04:18.299Z,5.04
2023-01-23T11:05:18.580Z,5.07
2023-01-23T11:06:18.388Z,5.04
2023-01-23T11:07:18.269Z,5.02
2023-01-23T11:08:18.240Z,5.04
2023-01-23T11:09:18.242Z,5.00
2023-01-23T11:10:18.224Z,5.12
2023-01-23T11:11:18.207Z,5.12
2023-01-23T11:12:18.197Z,5.21
2023-01-23T11:13:18.207Z,5.18
2023-01-23T11:14:18.176Z,5.20
2023-01-23T11:15:18.451Z,5.30
2023-01-23T11:16:18.216Z,5.51
2023-01-23T11:17:18.123Z,5.69
2023-01-23T11:18:18.312Z,5.90
2023-01-23T11:19:18.124Z,6.07
2023-01-23T11:20:18.117Z,6.30
2023-01-23T11:21:18.075Z,6.41
2023-01-23T11:22:18.182Z,6.41
2023-01-23T11:23:18.056Z,6.51
2023-01-23T11:24:20.464Z,6.77
2023-01-23T11:25:18.188Z,6.89
2023-01-23T11:26:18.009Z,6.92
2023-01-23T11:27:17.995Z,6.82
2023-01-23T11:28:17.980Z,6.81
2023-01-23T11:29:17.987Z,7.03
2023-01-23T11:30:17.971Z,8.10
2023-01-23T11:31:18.075Z,8.52
2023-01-23T11:32:18.105Z,8.30
2023-01-23T11:33:17.915Z,7.73
2023-01-23T11:34:17.918Z,8.76
2023-01-23T11:35:17.948Z,9.58
2023-01-23T11:36:17.878Z,10.05
2023-01-23T11:37:17.866Z,10.34
2023-01-23T11:38:24.338Z,10.25
2023-01-23T11:39:18.851Z,10.67
2023-01-23T11:40:17.825Z,11.08
2023-01-23T11:41:17.817Z,10.56
2023-01-23T11:42:17.799Z,9.97
2023-01-23T11:43:17.800Z,9.29
2023-01-23T11:44:18.686Z,9.03
2023-01-23T11:45:17.910Z,8.61
2023-01-23T11:46:17.842Z,8.37
2023-01-23T11:47:17.734Z,8.12
2023-01-23T11:48:17.719Z,7.63
2023-01-23T11:49:17.723Z,7.39
2023-01-23T11:50:17.702Z,7.14
2023-01-23T11:51:17.746Z,7.02
2023-01-23T11:52:17.676Z,7.94
2023-01-23T11:53:17.698Z,7.61
2023-01-23T11:54:17.817Z,7.43
2023-01-23T11:55:17.691Z,7.29
2023-01-23T11:56:17.631Z,7.05
2023-01-23T11:57:17.605Z,7.03
2023-01-23T11:58:17.589Z,6.85
2023-01-23T11:59:17.602Z,6.92
2023-01-23T12:00:17.675Z,7.45
2023-01-23T12:01:17.598Z,7.25
2023-01-23T12:02:17.562Z,7.05
2023-01-23T12:03:17.529Z,7.07
2023-01-23T12:04:17.596Z,7.14
2023-01-23T12:05:17.518Z,7.58
2023-01-23T12:07:18.484Z,7.94
2023-01-23T12:08:17.458Z,8.03
2023-01-23T12:09:17.462Z,8.06
2023-01-23T12:10:17.459Z,8.53
2023-01-23T12:11:17.421Z,8.42
2023-01-23T12:12:17.445Z,9.55
2023-01-23T12:13:17.406Z,9.69
2023-01-23T12:14:17.395Z,9.23
2023-01-23T12:15:17.376Z,10.10
2023-01-23T12:16:17.481Z,10.87
2023-01-23T12:17:17.342Z,10.82
2023-01-23T12:18:17.338Z,11.86
2023-01-23T12:19:17.353Z,11.57
2023-01-23T12:20:17.300Z,11.04
2023-01-23T12:21:17.296Z,12.10
2023-01-23T12:22:17.279Z,12.53
2023-01-23T12:23:17.272Z,11.91
2023-01-23T12:24:17.255Z,11.27
2023-01-23T12:25:17.257Z,10.69
2023-01-23T12:26:17.339Z,11.18
2023-01-23T12:27:17.221Z,11.54
2023-01-23T12:28:18.058Z,12.22
2023-01-23T12:29:17.190Z,12.65
2023-01-23T12:30:17.186Z,12.90
2023-01-23T12:31:17.293Z,13.50
2023-01-23T12:32:17.285Z,13.44
2023-01-23T12:33:17.139Z,13.93
2023-01-23T12:34:17.119Z,14.28
2023-01-23T12:35:17.119Z,14.78
2023-01-23T12:36:17.090Z,14.68
2023-01-23T12:37:29.930Z,14.36
2023-01-23T12:38:17.071Z,14.33
2023-01-23T12:39:17.050Z,14.44
2023-01-23T12:40:17.055Z,14.05
2023-01-23T12:41:17.031Z,14.07
2023-01-23T12:42:17.127Z,14.33
2023-01-23T12:43:17.008Z,14.41
2023-01-23T12:44:16.986Z,14.48
2023-01-23T12:45:16.988Z,14.53
2023-01-23T12:46:16.976Z,14.60
2023-01-23T12:47:16.951Z,14.94
2023-01-23T12:48:16.941Z,15.43
2023-01-23T12:49:16.928Z,15.49
2023-01-23T12:50:16.949Z,15.84
2023-01-23T12:51:17.031Z,16.29
2023-01-23T12:52:16.887Z,16.53
2023-01-23T12:53:16.900Z,16.53
2023-01-23T12:54:16.860Z,16.64
2023-01-23T12:55:16.870Z,16.01
2023-01-23T12:56:16.838Z,15.64
2023-01-23T12:57:16.817Z,15.88
2023-01-23T12:58:16.933Z,15.95
2023-01-23T12:59:16.798Z,16.05
2023-01-23T13:00:16.796Z,16.28
2023-01-23T13:01:16.780Z,16.53
2023-01-23T13:02:16.784Z,16.87
2023-01-23T13:03:18.399Z,16.57
2023-01-23T13:04:16.726Z,16.53
2023-01-23T13:05:16.736Z,16.53
2023-01-23T13:06:16.702Z,16.57
2023-01-23T13:07:16.697Z,16.39
2023-01-23T13:08:18.967Z,16.41
2023-01-23T13:09:18.680Z,16.33
2023-01-23T13:10:16.669Z,16.02
2023-01-23T13:11:18.077Z,15.95
2023-01-23T13:12:16.629Z,15.84
2023-01-23T13:13:16.626Z,15.72
2023-01-23T13:14:16.719Z,15.43
2023-01-23T13:15:18.901Z,15.77
2023-01-23T13:16:17.651Z,16.00
2023-01-23T13:17:16.563Z,15.95